Latest Weather Observations for Cooma Airport

IDN60801

Issued at 10:52 am EST Monday 16 September 2019 (issued every 10 minutes, with the page automatically refreshed every 10 minutes)

About weather observations | Map of weather stations | Latest weather observations for NSW | Other Formats
Station Details ID: 070217 Name: COOMA AIRPORT AWS Lat: -36.29 Lon: 148.97 Height: 930.0 m
Data from the previous 72 hours. | See also: Recent months at Cooma Airport
Date/Time
EST
Temp
°C
App
Temp
°C
Dew
Point
°C
Rel
Hum
%
Delta-T
°C
Wind Press
QNH
hPa
Press
MSL
hPa
Rain since
9am
mm
Dir  Spd
km/h
Gust
km/h
Spd
kts
Gust
kts
16/10:30am 10.4 3.5 7.3 81 1.6 S 33 43 18 23 1016.1 1016.0 0.0
16/10:00am 12.0 5.2 6.7 70 2.7 S 32 39 17 21 1016.4 1016.4 0.0
16/09:30am 15.6 9.5 4.9 49 5.3 S 26 33 14 18 1016.0 1015.9 0.0
16/09:00am 15.8 10.1 4.8 48 5.5 S 24 30 13 16 1015.5 1015.4 0.0
16/08:30am 16.4 12.6 1.7 37 6.9 SW 11 22 6 12 1014.9 1014.8 0.0
16/08:00am 17.1 9.8 -2.5 26 8.5 WNW 26 35 14 19 1014.7 1014.6 0.0
16/07:30am 14.9 10.9 0.7 38 6.4 NW 11 20 6 11 1014.6 1014.5 0.0
16/07:00am 11.9 10.1 1.0 47 4.8 CALM 0 0 0 0 1014.5 1014.4 0.0
16/06:30am 12.1 8.3 -0.4 42 5.4 NW 9 17 5 9 1014.7 1014.6 0.0
16/06:00am 11.3 7.8 1.5 51 4.4 WSW 9 22 5 12 1014.7 1014.6 0.0
16/05:30am 9.4 6.7 0.6 54 3.8 ESE 4 13 2 7 1014.8 1014.7 0.0
16/05:00am 7.9 4.4 1.1 62 2.9 NE 9 17 5 9 1014.4 1014.3 0.0
16/04:30am 6.8 2.9 1.1 67 2.4 NE 11 13 6 7 1014.2 1014.1 0.0
16/04:00am 6.3 2.3 0.4 66 2.4 ENE 11 13 6 7 1014.1 1014.0 0.0
16/03:30am 6.4 3.0 -0.3 62 2.7 NNE 7 9 4 5 1014.1 1014.0 0.0
16/03:00am 8.9 5.4 1.3 59 3.3 NNE 9 11 5 6 1014.6 1014.5 0.0
16/02:30am 12.1 9.4 2.6 52 4.4 N 6 9 3 5 1015.2 1015.2 0.0
16/02:00am 12.6 8.5 2.5 50 4.7 NNW 13 20 7 11 1016.0 1015.9 0.0
16/01:30am 13.1 8.8 3.2 51 4.7 NW 15 26 8 14 1016.5 1016.5 0.0
16/01:00am 12.8 8.4 2.6 50 4.7 W 15 24 8 13 1017.2 1017.2 0.0
16/12:30am 13.2 7.5 -0.4 39 5.9 W 19 30 10 16 1018.0 1017.9 0.0
16/12:00am 13.8 8.2 -3.0 31 6.9 WNW 17 22 9 12 1018.4 1018.4 0.0
 
Date/Time
EST
Temp
°C
App
Temp
°C
Dew
Point
°C
Rel
Hum
%
Delta-T
°C
Wind Press
QNH
hPa
Press
MSL
hPa
Rain since
9am
mm
Dir  Spd
km/h
Gust
km/h
Spd
kts
Gust
kts
15/11:30pm 13.5 8.7 -2.8 32 6.7 NW 13 24 7 13 1018.3 1018.3 0.0
15/11:00pm 12.1 7.7 -2.5 36 6.0 N 11 17 6 9 1018.4 1018.4 0.0
15/10:30pm 14.1 9.7 -2.3 32 6.9 E 11 19 6 10 1018.6 1018.6 0.0
15/10:00pm 12.0 7.6 -2.6 36 6.0 SSE 11 15 6 8 1018.8 1018.8 0.0
15/09:30pm 13.5 10.0 -1.6 35 6.4 NW 7 13 4 7 1019.3 1019.3 0.0
15/09:00pm 13.0 8.3 -1.7 36 6.2 NW 13 20 7 11 1019.6 1019.6 0.0
15/08:30pm 13.2 8.1 -1.9 35 6.4 WNW 15 24 8 13 1019.8 1019.8 0.0
15/08:00pm 13.8 7.7 -2.2 33 6.7 NW 20 35 11 19 1019.7 1019.7 0.0
15/07:30pm 14.5 8.3 -0.4 36 6.6 NW 22 35 12 19 1019.7 1019.7 0.0
15/07:00pm 14.6 8.6 1.2 40 6.1 NW 22 30 12 16 1019.7 1019.7 0.0
15/06:30pm 14.9 8.8 0.4 37 6.5 NW 22 35 12 19 1019.5 1019.5 0.0
15/06:00pm 15.5 7.8 0.1 35 6.9 WNW 30 44 16 24 1019.1 1019.1 0.0
15/05:30pm 16.0 8.7 -0.2 33 7.3 NW 28 41 15 22 1018.5 1018.5 0.0
15/05:12pm 16.7 9.5 0.4 33 7.4 WNW 28 46 15 25 1018.4 1018.4 0.0
15/05:00pm 16.9 11.3 0.1 32 7.6 NW 19 30 10 16 1018.5 1018.5 0.0
15/04:30pm 16.7 10.0 1.2 35 7.2 WNW 26 37 14 20 1018.7 1018.7 0.0
15/04:00pm 16.7 10.0 1.2 35 7.2 WNW 26 41 14 22 1018.6 1018.6 0.0
15/03:30pm 16.6 9.3 2.6 39 6.7 WNW 30 41 16 22 1019.0 1019.0 0.0
15/03:00pm 16.7 8.9 2.7 39 6.7 WNW 33 52 18 28 1018.8 1018.8 0.0
15/02:30pm 16.5 9.1 1.8 37 6.9 W 30 50 16 27 1019.7 1019.7 0.0
15/02:21pm 16.6 9.5 1.5 36 7.0 WNW 28 50 15 27 1019.9 1020.0 0.0
15/02:00pm 16.5 10.5 1.0 35 7.1 NW 22 39 12 21 1019.8 1019.8 0.0
15/01:30pm 16.8 11.2 0.9 34 7.3 WNW 20 32 11 17 1020.2 1020.2 0.0
15/01:00pm 16.3 10.3 1.2 36 7.0 WNW 22 35 12 19 1020.8 1020.9 0.0
15/12:30pm 17.5 10.7 0.6 32 7.8 NW 26 37 14 20 1020.9 1021.0 0.0
15/12:00pm 18.6 12.6 1.2 31 8.2 W 22 33 12 18 1021.3 1021.3 0.0
15/11:30am 18.4 13.2 2.3 34 7.7 W 19 32 10 17 1021.1 1021.2 0.0
15/11:00am 15.6 12.1 -2.8 28 7.7 NE 6 11 3 6 1021.7 1021.7 0.0
15/10:30am 15.6 9.9 -3.8 26 8.0 WNW 17 24 9 13 1022.1 1022.2 0.0
15/10:00am 15.7 9.0 -7.8 19 8.9 WNW 20 33 11 18 1022.7 1022.8 0.0
15/09:30am 17.3 10.2 -7.9 17 9.7 WNW 22 30 12 16 1022.7 1022.8 0.0
15/09:00am 17.6 11.1 -8.5 16 9.9 WNW 19 26 10 14 1022.7 1022.8 0.0
15/08:30am 16.8 10.8 -6.3 20 9.2 WNW 17 26 9 14 1022.9 1023.0 0.0
15/08:00am 14.4 8.7 -7.0 22 8.1 NW 15 20 8 11 1022.7 1022.8 0.0
15/07:30am 13.9 9.5 -10.7 17 8.6 NW 7 11 4 6 1022.3 1022.4 0.0
15/07:00am 9.1 4.7 -6.3 33 5.6 NNE 9 15 5 8 1022.1 1022.2 0.0
15/06:30am 8.1 3.9 -7.2 33 5.4 NNE 7 9 4 5 1021.9 1022.0 0.0
15/06:00am 7.0 2.5 -6.7 37 4.8 NNE 9 13 5 7 1021.8 1021.9 0.0
15/05:30am 6.4 2.3 -6.2 40 4.4 ENE 7 13 4 7 1021.6 1021.6 0.0
15/05:00am 5.9 3.2 -6.3 41 4.2 CALM 0 2 0 1 1021.9 1022.0 0.0
15/04:30am 5.8 1.7 -8.8 34 4.8 ENE 6 9 3 5 1021.8 1021.9 0.0
15/04:00am 6.2 2.2 -8.1 35 4.8 SW 6 11 3 6 1021.5 1021.5 0.0
15/03:49am 9.4 4.7 -9.1 26 6.3 SSW 9 11 5 6 1021.5 1021.5 0.0
15/03:30am 3.9 0.4 -5.8 49 3.3 W 4 9 2 5 1021.6 1021.6 0.0
15/03:00am 5.7 3.0 -5.9 43 4.1 CALM 0 0 0 0 1021.6 1021.6 0.0
15/02:30am 4.3 1.3 -5.5 49 3.4 NW 2 9 1 5 1021.9 1022.0 0.0
15/02:00am 3.4 0.5 -4.5 56 2.8 ESE 2 9 1 5 1021.9 1022.0 0.0
15/01:30am 4.6 2.1 -4.4 52 3.2 CALM 0 0 0 0 1022.2 1022.3 0.0
15/01:00am 6.1 3.1 -4.9 45 4.0 SW 2 7 1 4 1022.7 1022.8 0.0
15/12:30am 7.5 3.8 -3.1 47 4.1 SW 7 11 4 6 1023.0 1023.1 0.0
15/12:00am 7.9 4.9 -1.9 50 3.9 SSE 4 7 2 4 1022.9 1023.0 0.0
 
Date/Time
EST
Temp
°C
App
Temp
°C
Dew
Point
°C
Rel
Hum
%
Delta-T
°C
Wind Press
QNH
hPa
Press
MSL
hPa
Rain since
9am
mm
Dir  Spd
km/h
Gust
km/h
Spd
kts
Gust
kts
14/11:30pm 6.5 4.2 -2.6 52 3.5 CALM 0 9 0 5 1022.9 1023.0 0.0
14/11:00pm 8.9 4.5 -2.4 45 4.5 WNW 11 20 6 11 1023.1 1023.2 0.0
14/10:30pm 9.9 4.1 -1.5 45 4.7 WNW 19 24 10 13 1023.1 1023.2 0.0
14/10:00pm 10.0 4.1 -1.1 46 4.6 WNW 20 28 11 15 1023.7 1023.8 0.0
14/09:30pm 9.7 4.0 -0.8 48 4.4 WNW 19 24 10 13 1023.9 1024.0 0.0
14/09:00pm 8.7 4.4 0.7 57 3.4 WNW 13 19 7 10 1023.9 1024.0 0.0
14/08:30pm 3.7 -0.1 -5.7 50 3.2 SE 6 7 3 4 1023.8 1023.9 0.0
14/08:00pm 3.6 0.2 -10.0 36 4.4 WNW 2 9 1 5 1023.7 1023.8 0.0
14/07:30pm 6.9 2.0 -11.2 26 5.7 W 9 11 5 6 1023.7 1023.8 0.0
14/07:00pm 9.7 4.1 -10.4 23 6.7 WNW 13 19 7 10 1023.6 1023.6 0.0
14/06:30pm 9.8 4.9 -11.5 21 6.9 SW 9 11 5 6 1023.2 1023.3 0.0
14/06:00pm 10.5 4.1 -11.5 20 7.2 S 17 20 9 11 1023.0 1023.1 0.0
14/05:30pm 14.1 7.3 -9.8 18 8.5 SSW 20 26 11 14 1022.6 1022.6 0.0
14/05:00pm 16.0 7.6 -9.8 16 9.4 SSW 28 35 15 19 1022.1 1022.2 0.0
14/04:30pm 16.9 7.8 -9.9 15 9.9 SSW 32 39 17 21 1021.8 1021.9 0.0
14/04:00pm 17.3 7.9 -11.3 13 10.3 S 33 43 18 23 1021.6 1021.6 0.0
14/03:30pm 17.8 7.7 -10.0 14 10.3 SSW 37 44 20 24 1021.5 1021.5 0.0
14/03:00pm 17.7 7.7 -9.2 15 10.1 SSW 37 44 20 24 1021.5 1021.5 0.0
14/02:30pm 18.4 8.8 -8.7 15 10.4 SSW 35 46 19 25 1021.6 1021.6 0.0
14/02:00pm 18.1 8.7 -14.0 10 11.0 SSW 32 43 17 23 1021.7 1021.7 0.0
14/01:45pm 18.0 9.4 -14.0 10 11.0 SSW 28 46 15 25 1021.6 1021.6 0.0
14/01:30pm 17.8 10.0 -13.0 11 10.8 SSW 24 37 13 20 1022.1 1022.2 0.0
14/01:00pm 16.9 9.2 -11.7 13 10.1 SSW 24 33 13 18 1022.3 1022.4 0.0
14/12:30pm 16.9 10.2 -8.3 17 9.6 S 20 30 11 16 1022.6 1022.6 0.0
14/12:00pm 15.2 8.2 -6.9 21 8.5 SW 22 32 12 17 1022.9 1023.0 0.0
14/11:30am 14.7 7.4 -6.2 23 8.1 SW 24 32 13 17 1023.0 1023.1 0.0
14/11:00am 14.0 6.7 -6.8 23 7.9 SSW 24 33 13 18 1023.2 1023.3 0.0
14/10:30am 13.1 5.2 -5.0 28 7.1 SSW 28 37 15 20 1023.3 1023.4 0.0
14/10:00am 11.7 4.8 -2.5 37 5.8 SW 24 33 13 18 1023.4 1023.5 0.0
14/09:30am 9.7 4.2 1.8 58 3.5 SW 20 28 11 15 1023.7 1023.8 0.0
14/09:00am 8.9 3.2 2.9 66 2.7 SW 22 30 12 16 1023.7 1023.8 0.0
14/08:30am 7.6 2.2 2.7 71 2.2 SW 20 26 11 14 1023.4 1023.5 0.0
14/08:00am 6.5 1.3 2.6 76 1.7 SSW 19 20 10 11 1023.4 1023.5 0.0
14/07:30am 5.2 0.9 3.2 87 0.9 SW 15 19 8 10 1023.2 1023.3 0.0
14/07:00am 3.3 -1.9 2.6 95 0.3 SW 19 22 10 12 1022.9 1023.0 0.0
14/06:30am 2.1 -3.5 0.9 92 0.5 SW 20 24 11 13 1022.7 1022.8 0.0
14/06:00am 1.0 -5.0 -1.6 83 1.0 SW 20 24 11 13 1022.3 1022.4 0.0
14/05:30am 0.2 -5.8 -2.7 81 1.1 SW 19 20 10 11 1021.9 1022.0 0.0
14/05:00am 0.8 -5.2 -2.8 77 1.3 SW 19 20 10 11 1021.5 1021.5 0.0
14/04:30am 0.9 -4.7 -3.0 75 1.5 SSW 17 20 9 11 1021.1 1021.2 0.0
14/04:00am 1.6 -4.4 -3.1 71 1.8 SW 19 20 10 11 1020.9 1021.0 0.0
14/03:30am 1.5 -3.0 -3.2 71 1.8 SSW 11 13 6 7 1020.9 1021.0 0.0
14/03:00am 1.2 -3.9 -4.8 64 2.1 WSW 13 15 7 8 1020.8 1020.9 0.0
14/02:30am 3.1 -1.8 -3.7 61 2.5 WSW 13 13 7 7 1020.8 1020.9 0.0
14/02:00am 5.1 -0.2 -3.2 55 3.1 SSW 15 20 8 11 1020.8 1020.9 0.0
14/01:30am 7.6 2.2 -1.4 53 3.6 W 17 20 9 11 1020.9 1021.0 0.0
14/01:00am 5.6 0.0 -2.5 56 3.1 WSW 17 20 9 11 1020.8 1020.9 0.0
14/12:30am 6.0 0.3 -3.4 51 3.5 SW 17 19 9 10 1020.7 1020.7 0.0
14/12:00am 8.6 3.1 -2.3 46 4.3 W 17 20 9 11 1020.8 1020.9 0.0
 
Date/Time
EST
Temp
°C
App
Temp
°C
Dew
Point
°C
Rel
Hum
%
Delta-T
°C
Wind Press
QNH
hPa
Press
MSL
hPa
Rain since
9am
mm
Dir  Spd
km/h
Gust
km/h
Spd
kts
Gust
kts
13/11:30pm 9.9 4.5 -1.5 45 4.7 W 17 24 9 13 1021.0 1021.1 0.0
13/11:00pm 9.5 4.6 -3.4 40 5.0 W 13 22 7 12 1020.9 1021.0 0.0
13/10:30pm 9.6 3.3 -5.5 34 5.6 WSW 19 24 10 13 1021.4 1021.4 0.0
13/10:00pm 10.2 3.6 -6.6 30 6.2 WSW 20 28 11 15 1021.6 1021.6 0.0
13/09:30pm 9.8 3.7 -7.4 29 6.2 WSW 17 20 9 11 1021.7 1021.7 0.0
13/09:00pm 9.4 3.5 -10.1 24 6.5 W 15 20 8 11 1021.7 1021.7 0.0
13/08:30pm 10.4 3.6 -9.8 23 6.9 WNW 20 26 11 14 1021.5 1021.5 0.0
13/08:00pm 10.3 4.5 -8.3 26 6.6 W 15 22 8 12 1021.5 1021.5 0.0
13/07:30pm 10.8 4.4 -7.0 28 6.5 WNW 19 24 10 13 1021.3 1021.3 0.0
13/07:00pm 12.0 5.5 -6.4 27 6.9 WNW 20 28 11 15 1020.9 1021.0 0.0
13/06:30pm 12.6 6.5 -7.4 24 7.4 W 17 22 9 12 1021.0 1021.1 0.0
13/06:00pm 13.5 7.4 -7.2 23 7.8 W 17 26 9 14 1021.0 1021.1 0.0
13/05:30pm 14.0 7.1 -6.2 24 7.8 WSW 22 30 12 16 1021.4 1021.4 0.0
13/05:00pm 14.6 7.8 -8.7 19 8.6 WSW 20 28 11 15 1021.5 1021.5 0.0
13/04:30pm 15.1 6.8 -14.1 12 9.6 W 26 35 14 19 1021.1 1021.2 0.0
13/04:00pm 15.9 8.0 -14.5 11 10.1 W 24 33 13 18 1020.6 1020.6 0.0
13/03:30pm 17.8 8.7 -15.5 9 11.1 WNW 30 43 16 23 1020.4 1020.4 0.0
13/03:00pm 18.2 8.7 -16.6 8 11.4 W 32 41 17 22 1020.2 1020.2 0.0
13/02:30pm 19.6 12.4 -15.5 8 11.9 WNW 20 32 11 17 1019.7 1019.7 0.0
13/02:00pm 20.1 11.2 -20.7 5 12.7 W 28 37 15 20 1019.8 1019.8 0.0
13/01:30pm 20.9 12.2 -16.2 7 12.7 WSW 28 39 15 21 1020.2 1020.2 0.0
13/01:00pm 19.9 11.1 -16.9 7 12.2 WSW 28 35 15 19 1020.6 1020.6 0.0
13/12:58pm 19.4 10.6 -17.3 7 12.0 WSW 28 35 15 19 1020.5 1020.5 0.0
13/12:30pm 18.6 14.2 -10.3 13 10.8 SSW 7 15 4 8 1020.8 1020.9 0.0
13/12:00pm 18.1 14.1 -8.1 16 10.2 N 6 13 3 7 1021.6 1021.6 0.0
13/11:30am 17.4 14.2 -7.1 18 9.6 ESE 2 11 1 6 1021.9 1022.0 0.0
13/11:00am 15.3 10.8 -12.0 14 9.4 NNE 7 11 4 6 1022.5 1022.5 0.0

Other formats

Comma delimited format used in spreadsheet applications
http://www.bom.gov.au/fwo/IDN60801/IDN60801.94921.axf

JavaScript Object Notation format (JSON) in row-major order
http://www.bom.gov.au/fwo/IDN60801/IDN60801.94921.json

Data quality

Most of these data are generated automatically and are frequently updated. Quality checks on data are not normally performed. It is possible for incorrect values to appear. Refer to information at About Latest Weather Observations and please check the disclaimer before using these data.